Time;durP1;ratioP1;P1;durP2;ratioP2;P2;SDS_P1;SDS_P2;PMS_P1;PMS_P2;Temp;Humidity;BMP_temperature;BMP_pressure;BME280_temperature;BME280_humidity;BME280_pressure;Samples;Min_cycle;Max_cycle;Signal;HPM_P1;HPM_P2
2021/05/14 00:01:45;;;;;;;11.10;7.40;;;12.50;99.90;;;;;;5093637;28;20024;-71
2021/05/14 00:04:10;;;;;;;11.70;8.25;;;12.50;99.90;;;;;;5094456;28;20043;-71
2021/05/14 00:06:36;;;;;;;9.65;8.27;;;12.50;99.90;;;;;;5092597;28;20134;-71
2021/05/14 00:09:01;;;;;;;11.23;8.13;;;12.40;99.90;;;;;;5094347;28;20020;-71
2021/05/14 00:11:27;;;;;;;13.30;8.82;;;12.50;99.90;;;;;;5094048;28;20035;-71
2021/05/14 00:13:54;;;;;;;13.07;7.88;;;12.50;99.90;;;;;;5094018;28;20051;-71
2021/05/14 00:16:21;;;;;;;13.48;8.75;;;12.40;99.90;;;;;;5092954;28;20020;-71
2021/05/14 00:18:46;;;;;;;11.35;8.65;;;12.30;99.90;;;;;;5093934;28;20099;-71
2021/05/14 00:21:12;;;;;;;14.15;9.00;;;12.20;99.90;;;;;;5094209;28;20441;-71
2021/05/14 00:23:37;;;;;;;11.20;8.68;;;12.20;99.90;;;;;;5094112;28;20039;-71
2021/05/14 00:26:03;;;;;;;11.88;8.80;;;12.30;99.90;;;;;;5093754;28;20062;-71
2021/05/14 00:28:28;;;;;;;14.40;9.73;;;12.30;99.90;;;;;;5092579;28;20107;-71
2021/05/14 00:30:54;;;;;;;11.73;9.88;;;12.30;99.90;;;;;;5092413;28;20066;-71
2021/05/14 00:33:19;;;;;;;12.52;9.27;;;12.20;99.90;;;;;;5092534;28;20028;-71
2021/05/14 00:35:45;;;;;;;14.63;10.00;;;12.20;99.90;;;;;;5092611;28;20024;-71
2021/05/14 00:38:10;;;;;;;12.43;8.55;;;12.20;99.90;;;;;;5093989;28;20077;-71
2021/05/14 00:40:36;;;;;;;13.82;9.30;;;12.20;99.90;;;;;;5092543;28;20020;-71
2021/05/14 00:43:01;;;;;;;13.00;9.00;;;12.20;99.90;;;;;;5093758;28;20081;-71
2021/05/14 00:45:27;;;;;;;12.90;9.48;;;12.30;99.90;;;;;;5093963;28;20449;-71
2021/05/14 00:47:52;;;;;;;13.75;9.43;;;12.20;99.90;;;;;;5092298;28;20469;-71
2021/05/14 00:50:19;;;;;;;14.30;9.75;;;12.20;99.90;;;;;;5092516;28;20017;-71
2021/05/14 00:52:44;;;;;;;12.30;9.23;;;12.20;99.90;;;;;;5092685;28;20020;-71
2021/05/14 00:55:11;;;;;;;11.48;9.43;;;12.20;99.90;;;;;;5093424;28;20086;-71
2021/05/14 00:57:37;;;;;;;12.88;9.50;;;12.20;99.90;;;;;;5093870;28;20035;-71
2021/05/14 01:00:04;;;;;;;13.93;9.30;;;12.20;99.90;;;;;;5093841;28;20032;-71
2021/05/14 01:02:29;;;;;;;12.90;9.80;;;12.20;99.90;;;;;;5093797;28;20074;-71
2021/05/14 01:04:56;;;;;;;11.38;9.30;;;12.10;99.90;;;;;;5075715;28;20028;-71
2021/05/14 01:07:21;;;;;;;12.70;10.15;;;12.10;99.90;;;;;;5093711;28;20033;-71
2021/05/14 01:09:47;;;;;;;11.80;9.40;;;12.00;99.90;;;;;;5093206;28;20034;-71
2021/05/14 01:12:12;;;;;;;10.38;9.07;;;12.00;99.90;;;;;;5093753;28;20035;-71
2021/05/14 01:14:38;;;;;;;14.15;8.80;;;12.10;99.90;;;;;;5097111;28;20457;-71
2021/05/14 01:17:04;;;;;;;12.23;9.45;;;12.10;99.90;;;;;;5097261;28;20534;-71
2021/05/14 01:19:29;;;;;;;10.73;8.77;;;12.00;99.90;;;;;;5097170;28;20077;-71
2021/05/14 01:21:55;;;;;;;11.50;9.27;;;12.10;99.90;;;;;;5097125;28;20035;-71
2021/05/14 01:24:21;;;;;;;13.43;10.10;;;12.00;99.90;;;;;;5097123;28;20107;-71
2021/05/14 01:26:47;;;;;;;11.95;9.38;;;12.00;99.90;;;;;;5096679;28;20149;-71
2021/05/14 01:29:13;;;;;;;12.23;9.00;;;12.00;99.90;;;;;;5097235;28;20404;-71
2021/05/14 01:31:39;;;;;;;14.13;9.35;;;12.00;99.90;;;;;;5096945;28;20453;-71
2021/05/14 01:34:07;;;;;;;12.80;10.25;;;12.00;99.90;;;;;;5096201;28;20476;-71
2021/05/14 01:36:36;;;;;;;11.32;9.35;;;12.00;99.90;;;;;;5095405;28;20444;-71
2021/05/14 01:39:09;;;;;;;14.85;9.38;;;12.00;99.90;;;;;;5096856;28;20024;-71
2021/05/14 01:41:35;;;;;;;11.50;9.88;;;12.00;99.90;;;;;;5095900;28;20117;-71
2021/05/14 01:44:01;;;;;;;13.13;9.75;;;12.00;99.90;;;;;;5097032;28;20056;-71
2021/05/14 01:46:26;;;;;;;13.52;10.80;;;11.90;99.90;;;;;;5096421;28;20024;-71
2021/05/14 01:48:54;;;;;;;15.88;11.10;;;11.90;99.90;;;;;;5096348;28;20024;-71
2021/05/14 01:51:20;;;;;;;18.80;12.43;;;11.90;99.90;;;;;;5096892;28;20100;-71
2021/05/14 01:53:46;;;;;;;15.10;11.70;;;11.90;99.90;;;;;;5096835;28;20087;-71
2021/05/14 01:56:12;;;;;;;18.33;11.88;;;11.90;99.90;;;;;;5096547;28;20020;-71
2021/05/14 01:58:38;;;;;;;17.73;12.25;;;11.90;99.90;;;;;;5096799;28;20098;-71
2021/05/14 02:01:04;;;;;;;19.27;13.93;;;11.90;99.90;;;;;;5096456;28;20469;-71
2021/05/14 02:03:30;;;;;;;18.88;13.45;;;11.90;99.90;;;;;;5096670;28;20051;-71
2021/05/14 02:05:56;;;;;;;22.27;15.30;;;11.90;99.90;;;;;;5096290;28;20393;-71
2021/05/14 02:08:22;;;;;;;21.27;16.48;;;11.90;99.90;;;;;;5096340;28;20024;-71
2021/05/14 02:10:48;;;;;;;23.85;18.55;;;11.80;99.90;;;;;;5096245;28;20024;-71
2021/05/14 02:13:13;;;;;;;24.77;18.33;;;11.90;99.90;;;;;;5096523;28;20020;-71
2021/05/14 02:15:39;;;;;;;24.75;18.70;;;11.90;99.90;;;;;;5096140;28;20427;-71
2021/05/14 02:18:06;;;;;;;27.20;18.25;;;11.90;99.90;;;;;;5095832;28;20027;-71
2021/05/14 02:20:32;;;;;;;28.77;20.27;;;11.90;99.90;;;;;;5096080;28;20024;-71
2021/05/14 02:22:57;;;;;;;31.00;21.60;;;11.80;99.90;;;;;;5096036;28;20020;-71
2021/05/14 02:25:23;;;;;;;31.77;20.73;;;11.80;99.90;;;;;;5096124;28;20461;-71
2021/05/14 02:27:49;;;;;;;32.05;21.42;;;11.80;99.90;;;;;;5095443;28;20115;-71
2021/05/14 02:30:15;;;;;;;38.78;23.02;;;11.80;99.90;;;;;;5095575;28;20085;-71
2021/05/14 02:32:40;;;;;;;31.15;23.25;;;11.80;99.90;;;;;;5096136;28;20020;-71
2021/05/14 02:35:06;;;;;;;35.88;23.95;;;11.70;99.90;;;;;;5095768;28;20396;-71
2021/05/14 02:37:32;;;;;;;38.20;25.20;;;11.70;99.90;;;;;;5095474;28;20080;-71
2021/05/14 02:39:57;;;;;;;36.28;24.73;;;11.80;99.90;;;;;;5095907;28;20076;-71
2021/05/14 02:42:23;;;;;;;40.83;26.85;;;11.80;99.90;;;;;;5095909;28;20028;-71
2021/05/14 02:44:49;;;;;;;37.15;26.58;;;11.80;99.90;;;;;;5095842;28;20173;-71
2021/05/14 02:47:15;;;;;;;42.20;28.83;;;11.80;99.90;;;;;;5095357;28;20051;-71
2021/05/14 02:49:40;;;;;;;44.97;31.42;;;11.80;99.90;;;;;;5095780;28;20024;-71
2021/05/14 02:52:06;;;;;;;45.92;31.83;;;11.80;99.90;;;;;;5095416;28;20377;-71
2021/05/14 02:54:33;;;;;;;46.88;32.67;;;11.70;99.90;;;;;;5095376;28;20085;-71
2021/05/14 02:56:59;;;;;;;53.83;35.33;;;11.70;99.90;;;;;;5095346;28;20028;-71
2021/05/14 02:59:25;;;;;;;47.35;33.80;;;11.80;99.90;;;;;;5095280;28;20393;-71
2021/05/14 03:01:51;;;;;;;49.40;34.90;;;11.80;99.90;;;;;;5095547;28;20106;-71
2021/05/14 03:04:16;;;;;;;58.20;37.60;;;11.70;99.90;;;;;;5095168;28;20036;-71
2021/05/14 03:06:42;;;;;;;58.20;40.13;;;11.80;99.90;;;;;;5095086;28;20024;-71
2021/05/14 03:09:08;;;;;;;56.42;38.50;;;11.80;99.90;;;;;;5095078;28;20028;-71
2021/05/14 03:11:34;;;;;;;58.05;39.17;;;11.80;99.90;;;;;;5095332;28;20028;-71
2021/05/14 03:13:59;;;;;;;64.18;41.58;;;11.80;99.90;;;;;;5094687;28;20103;-71
2021/05/14 03:16:25;;;;;;;63.13;40.90;;;11.80;99.90;;;;;;5094618;28;20069;-71
2021/05/14 03:18:51;;;;;;;63.38;41.15;;;11.70;99.90;;;;;;5095205;28;20024;-71
2021/05/14 03:21:16;;;;;;;64.00;42.17;;;11.70;99.90;;;;;;5094836;28;20024;-71
2021/05/14 03:23:42;;;;;;;64.90;42.15;;;11.80;99.90;;;;;;5094844;28;20031;-71
2021/05/14 03:26:08;;;;;;;68.82;44.63;;;11.70;99.90;;;;;;5094688;28;20120;-71
2021/05/14 03:28:34;;;;;;;65.40;44.22;;;11.70;99.90;;;;;;5095003;28;20458;-71
2021/05/14 03:30:59;;;;;;;70.82;44.33;;;11.70;99.90;;;;;;5094951;28;20096;-71
2021/05/14 03:33:25;;;;;;;71.40;46.80;;;11.70;99.90;;;;;;5094658;28;20440;-71
2021/05/14 03:35:53;;;;;;;71.93;46.13;;;11.70;99.90;;;;;;5094373;28;20073;-71
2021/05/14 03:38:22;;;;;;;76.63;47.67;;;11.70;99.90;;;;;;5094534;28;20020;-71
2021/05/14 03:40:49;;;;;;;78.70;47.60;;;11.60;99.90;;;;;;5094486;28;20027;-71
2021/05/14 03:43:15;;;;;;;81.20;49.05;;;11.60;99.90;;;;;;5094240;28;20020;-71
2021/05/14 03:45:40;;;;;;;83.53;49.20;;;11.50;99.90;;;;;;5094669;28;20446;-71
2021/05/14 03:48:22;;;;;;;79.13;49.40;;;11.60;99.90;;;;;;5094604;28;20052;-71
2021/05/14 03:50:51;;;;;;;87.13;50.05;;;11.60;99.90;;;;;;5094406;28;20027;-71
2021/05/14 03:53:17;;;;;;;84.68;49.95;;;11.60;99.90;;;;;;5094088;28;20099;-71
2021/05/14 03:55:43;;;;;;;84.47;50.90;;;11.60;99.90;;;;;;5094060;28;20016;-71
2021/05/14 03:58:09;;;;;;;85.30;50.75;;;11.60;99.90;;;;;;5093965;28;20076;-71
2021/05/14 04:00:34;;;;;;;86.78;51.63;;;11.60;99.90;;;;;;5094466;28;20024;-71
2021/05/14 04:03:00;;;;;;;79.72;48.70;;;11.70;99.90;;;;;;5094461;28;20024;-71
2021/05/14 04:05:26;;;;;;;78.95;47.85;;;11.70;99.90;;;;;;5094129;28;20032;-71
2021/05/14 04:07:52;;;;;;;84.50;49.42;;;11.80;99.90;;;;;;5094285;28;20483;-71
2021/05/14 04:10:31;;;;;;;83.88;51.42;;;11.70;99.90;;;;;;5094355;28;20099;-71
2021/05/14 04:15:42;;;;;;;87.43;50.63;;;11.70;99.90;;;;;;5093984;28;20473;-71
2021/05/14 04:18:08;;;;;;;89.22;51.55;;;11.70;99.90;;;;;;5094192;28;20032;-71
2021/05/14 04:20:33;;;;;;;81.63;51.05;;;11.70;99.90;;;;;;5093980;28;20027;-71
2021/05/14 04:22:59;;;;;;;83.85;50.15;;;11.80;99.90;;;;;;5094181;28;20465;-71
2021/05/14 04:25:24;;;;;;;88.22;52.75;;;11.80;99.90;;;;;;5094146;28;20382;-71
2021/05/14 04:27:50;;;;;;;89.43;52.92;;;11.70;99.90;;;;;;5093417;28;20036;-71
2021/05/14 04:30:16;;;;;;;84.63;51.53;;;11.80;99.90;;;;;;5094112;28;20473;-71
2021/05/14 04:32:42;;;;;;;86.20;51.83;;;11.80;99.90;;;;;;5093851;28;20020;-71
2021/05/14 04:35:07;;;;;;;86.25;51.72;;;11.70;99.90;;;;;;5094068;28;20028;-71
2021/05/14 04:37:33;;;;;;;94.10;54.28;;;11.80;99.90;;;;;;5093779;28;20028;-71
2021/05/14 04:39:58;;;;;;;92.82;53.85;;;11.70;99.90;;;;;;5094015;28;20032;-71
2021/05/14 04:42:24;;;;;;;88.82;52.25;;;11.80;99.90;;;;;;5093710;28;20119;-71
2021/05/14 04:44:50;;;;;;;88.78;52.22;;;11.80;99.90;;;;;;5093940;28;20032;-71
2021/05/14 04:47:15;;;;;;;90.20;54.00;;;11.80;99.90;;;;;;5093348;28;20035;-71
2021/05/14 04:49:41;;;;;;;94.88;54.63;;;11.80;99.90;;;;;;5097331;28;20024;-71
2021/05/14 04:52:18;;;;;;;88.22;51.63;;;11.80;99.90;;;;;;5097768;28;20099;-71
2021/05/14 04:54:46;;;;;;;94.90;53.88;;;11.80;99.90;;;;;;5098002;28;20027;-71
2021/05/14 04:57:13;;;;;;;92.90;52.35;;;11.80;99.90;;;;;;5097661;28;20028;-71
2021/05/14 04:59:39;;;;;;;98.55;54.30;;;11.80;99.90;;;;;;5097618;28;20508;-71
2021/05/14 05:02:07;;;;;;;97.88;54.42;;;11.80;99.90;;;;;;5097574;28;20024;-71
2021/05/14 05:04:35;;;;;;;91.55;52.15;;;11.90;99.90;;;;;;5096366;28;20024;-71
2021/05/14 05:07:00;;;;;;;91.03;52.33;;;11.80;99.90;;;;;;5097678;28;20035;-71
2021/05/14 05:09:26;;;;;;;86.18;48.60;;;11.80;99.90;;;;;;5097407;28;20028;-71
2021/05/14 05:11:52;;;;;;;87.00;50.92;;;11.90;99.90;;;;;;5097083;28;20028;-71
2021/05/14 05:14:17;;;;;;;86.15;49.42;;;11.90;99.90;;;;;;5097574;28;20031;-71
2021/05/14 05:16:43;;;;;;;92.57;50.13;;;11.90;99.90;;;;;;5097209;28;20388;-71
2021/05/14 05:19:08;;;;;;;82.07;49.42;;;11.90;99.90;;;;;;5097480;28;20036;-71
2021/05/14 05:21:34;;;;;;;83.80;47.95;;;12.00;99.90;;;;;;5097432;28;20103;-71
2021/05/14 05:23:59;;;;;;;87.20;49.55;;;12.00;99.90;;;;;;5097343;28;20354;-71
2021/05/14 05:26:26;;;;;;;86.25;47.75;;;12.00;99.90;;;;;;5096460;28;20131;-71
2021/05/14 05:28:52;;;;;;;80.32;48.00;;;12.00;99.90;;;;;;5096985;28;20028;-71
2021/05/14 05:31:17;;;;;;;87.40;49.90;;;12.00;99.90;;;;;;5096862;28;20043;-71
2021/05/14 05:33:43;;;;;;;82.95;49.20;;;12.10;99.90;;;;;;5097105;28;20027;-71
2021/05/14 05:36:09;;;;;;;91.28;50.70;;;12.10;99.90;;;;;;5097001;28;20069;-71
2021/05/14 05:38:34;;;;;;;89.28;51.00;;;12.10;99.90;;;;;;5096630;28;20380;-71
2021/05/14 05:41:00;;;;;;;85.72;48.63;;;12.20;99.90;;;;;;5095849;28;20085;-71
2021/05/14 05:43:25;;;;;;;90.00;49.95;;;12.30;99.90;;;;;;5095892;28;20031;-71
2021/05/14 05:45:51;;;;;;;89.35;49.58;;;12.30;99.90;;;;;;5096627;28;20576;-71
2021/05/14 05:48:17;;;;;;;90.25;49.97;;;12.40;99.90;;;;;;5096284;28;20028;-71
2021/05/14 05:50:42;;;;;;;92.93;52.13;;;12.40;99.90;;;;;;5096870;28;20047;-70
2021/05/14 05:53:08;;;;;;;91.05;50.25;;;12.60;99.90;;;;;;5095584;28;20028;-71
2021/05/14 05:55:34;;;;;;;84.75;50.85;;;12.60;99.90;;;;;;5094946;28;20459;-71
2021/05/14 05:58:06;;;;;;;81.47;48.10;;;12.80;99.90;;;;;;5096153;28;20099;-71
2021/05/14 06:00:31;;;;;;;80.65;47.60;;;12.80;99.90;;;;;;5096155;28;20043;-71
2021/05/14 06:02:57;;;;;;;80.15;46.47;;;12.80;99.90;;;;;;5096594;28;20024;-71
2021/05/14 06:05:23;;;;;;;81.75;47.53;;;12.90;99.90;;;;;;5096230;28;20048;-71
2021/05/14 06:07:48;;;;;;;76.75;47.05;;;13.00;99.90;;;;;;5094628;28;20389;-71
2021/05/14 06:10:14;;;;;;;76.05;45.13;;;13.10;99.90;;;;;;5096485;28;20410;-71
2021/05/14 06:12:39;;;;;;;74.50;44.75;;;13.30;99.90;;;;;;5095892;28;20024;-71
2021/05/14 06:15:06;;;;;;;67.70;42.28;;;13.30;99.90;;;;;;5078085;28;20029;-71
2021/05/14 06:17:34;;;;;;;70.35;42.97;;;13.40;99.90;;;;;;5095904;28;20051;-71
2021/05/14 06:20:02;;;;;;;69.10;42.20;;;13.50;99.90;;;;;;5078290;28;20028;-71
2021/05/14 06:22:27;;;;;;;62.78;40.63;;;13.50;99.90;;;;;;5097211;28;20024;-71
2021/05/14 06:24:53;;;;;;;64.75;41.28;;;13.50;99.90;;;;;;5096177;28;20511;-71
2021/05/14 06:27:18;;;;;;;65.85;40.47;;;13.60;99.90;;;;;;5095434;28;20055;-71
2021/05/14 06:29:46;;;;;;;63.42;40.13;;;13.60;99.90;;;;;;5095772;28;20027;-71
2021/05/14 06:32:12;;;;;;;62.70;39.33;;;13.60;99.90;;;;;;5094618;28;20016;-71
2021/05/14 06:34:38;;;;;;;63.17;39.63;;;13.50;99.90;;;;;;5096034;28;20016;-71
2021/05/14 06:37:03;;;;;;;61.20;37.85;;;13.40;99.90;;;;;;5094413;28;20102;-71
2021/05/14 06:39:29;;;;;;;66.47;39.17;;;13.30;99.90;;;;;;5095882;28;20024;-71
2021/05/14 06:41:54;;;;;;;63.17;40.10;;;13.50;99.90;;;;;;5095525;28;20069;-71
2021/05/14 06:44:20;;;;;;;62.17;37.50;;;13.50;99.90;;;;;;5094015;28;20032;-71
2021/05/14 06:46:45;;;;;;;57.80;37.15;;;13.50;99.90;;;;;;5095359;28;20032;-71
2021/05/14 06:49:11;;;;;;;60.28;36.97;;;13.50;99.90;;;;;;5093980;28;20038;-71
2021/05/14 06:51:37;;;;;;;58.78;36.10;;;13.60;99.90;;;;;;5095318;28;20379;-71
2021/05/14 06:54:03;;;;;;;57.83;36.58;;;13.60;99.90;;;;;;5095346;28;20019;-71
2021/05/14 06:56:28;;;;;;;56.75;36.50;;;13.60;99.90;;;;;;5094958;28;20086;-71
2021/05/14 06:58:54;;;;;;;54.13;35.53;;;13.80;99.90;;;;;;5095548;28;20084;-71
2021/05/14 07:01:22;;;;;;;58.40;35.38;;;13.90;99.90;;;;;;5093664;28;20031;-71
2021/05/14 07:03:47;;;;;;;55.05;35.65;;;13.90;99.90;;;;;;5095173;28;20031;-71
2021/05/14 07:06:15;;;;;;;57.30;35.10;;;14.00;99.90;;;;;;5095373;28;20020;-71
2021/05/14 07:08:41;;;;;;;52.38;34.47;;;14.20;99.90;;;;;;5093951;28;20024;-71
2021/05/14 07:11:06;;;;;;;46.05;31.35;;;14.10;99.90;;;;;;5093976;28;20028;-71
2021/05/14 07:13:32;;;;;;;49.58;32.42;;;14.00;99.90;;;;;;5095041;28;20419;-71
2021/05/14 07:15:59;;;;;;;45.20;29.42;;;14.00;99.90;;;;;;5094877;28;20523;-71
2021/05/14 07:18:26;;;;;;;44.17;28.42;;;14.00;99.90;;;;;;5094937;28;20069;-71
2021/05/14 07:20:51;;;;;;;46.60;28.88;;;14.00;99.90;;;;;;5093997;28;20047;-71
2021/05/14 07:23:17;;;;;;;47.10;28.67;;;14.10;99.90;;;;;;5093927;28;20059;-71
2021/05/14 07:25:42;;;;;;;40.22;26.75;;;14.20;99.90;;;;;;5094778;28;20369;-71
2021/05/14 07:28:08;;;;;;;39.55;26.27;;;14.20;99.90;;;;;;5094909;28;20020;-71
2021/05/14 07:30:37;;;;;;;39.42;26.17;;;14.10;99.90;;;;;;5094412;28;20028;-71
2021/05/14 07:33:03;;;;;;;36.85;25.13;;;14.30;99.90;;;;;;5094679;28;20044;-71
2021/05/14 07:35:28;;;;;;;37.38;24.98;;;14.50;99.90;;;;;;5094581;28;20507;-71
2021/05/14 07:37:54;;;;;;;34.55;22.85;;;14.40;99.90;;;;;;5094848;28;20048;-71
2021/05/14 07:40:19;;;;;;;33.40;23.92;;;14.50;99.90;;;;;;5093006;28;20500;-71
2021/05/14 07:42:45;;;;;;;36.03;25.30;;;14.40;99.90;;;;;;5094603;28;20028;-71
2021/05/14 07:45:11;;;;;;;35.10;23.67;;;14.40;99.90;;;;;;5094334;28;20358;-71
2021/05/14 07:47:37;;;;;;;35.10;24.23;;;14.70;99.90;;;;;;5094041;28;20105;-71
2021/05/14 07:50:03;;;;;;;33.85;21.17;;;15.00;99.90;;;;;;5094623;28;20478;-71
2021/05/14 07:52:29;;;;;;;27.42;19.50;;;15.10;99.90;;;;;;5093900;28;20385;-71
2021/05/14 07:54:55;;;;;;;30.52;21.55;;;15.30;99.90;;;;;;5093982;28;20028;-71
2021/05/14 07:57:20;;;;;;;28.17;19.05;;;15.20;99.90;;;;;;5094009;28;20032;-71
2021/05/14 07:59:47;;;;;;;34.53;23.27;;;15.30;99.90;;;;;;5093949;28;20028;-71
2021/05/14 08:02:13;;;;;;;32.28;21.00;;;15.50;99.90;;;;;;5093388;28;20024;-71
2021/05/14 08:04:39;;;;;;;30.27;20.90;;;15.40;99.90;;;;;;5094403;28;20077;-71
2021/05/14 08:07:05;;;;;;;28.80;18.85;;;15.30;99.90;;;;;;5094334;28;20058;-71
2021/05/14 08:09:30;;;;;;;26.42;17.65;;;15.30;99.90;;;;;;5093888;28;20047;-71
2021/05/14 08:11:57;;;;;;;22.52;16.75;;;15.60;99.90;;;;;;5094034;28;20027;-71
2021/05/14 08:14:22;;;;;;;20.88;15.70;;;15.80;99.90;;;;;;5094322;28;20413;-71
2021/05/14 08:16:48;;;;;;;20.05;14.80;;;16.00;99.90;;;;;;5094233;28;20111;-71
2021/05/14 08:19:14;;;;;;;21.80;13.07;;;16.30;99.90;;;;;;5093921;28;20024;-71
2021/05/14 08:21:42;;;;;;;16.42;12.45;;;16.30;99.90;;;;;;5093975;28;20028;-71
2021/05/14 08:24:09;;;;;;;15.68;11.48;;;16.60;99.90;;;;;;5093914;28;20355;-71
2021/05/14 08:26:35;;;;;;;16.08;12.05;;;16.90;99.90;;;;;;5092238;28;20044;-71
2021/05/14 08:29:00;;;;;;;13.68;10.50;;;17.00;99.90;;;;;;5094141;28;20031;-71
2021/05/14 08:31:26;;;;;;;16.95;11.80;;;17.30;99.90;;;;;;5094061;28;20032;-71
2021/05/14 08:33:51;;;;;;;16.45;12.05;;;17.40;99.90;;;;;;5093595;28;20039;-71
2021/05/14 08:36:19;;;;;;;16.85;13.13;;;17.20;99.90;;;;;;5093740;28;20016;-71
2021/05/14 08:38:45;;;;;;;18.13;14.02;;;17.10;99.90;;;;;;5093690;28;20039;-71
2021/05/14 08:41:11;;;;;;;17.10;13.18;;;17.20;99.90;;;;;;5094018;28;20482;-71
2021/05/14 08:43:36;;;;;;;20.38;13.80;;;17.20;99.90;;;;;;5092816;28;20052;-71
2021/05/14 08:46:03;;;;;;;17.58;13.20;;;17.80;99.90;;;;;;5093811;28;20089;-72
2021/05/14 08:48:31;;;;;;;15.38;12.68;;;18.30;99.90;;;;;;5093605;28;20023;-72
2021/05/14 08:50:57;;;;;;;16.55;12.45;;;18.50;99.90;;;;;;5092061;28;20020;-72
2021/05/14 08:53:23;;;;;;;16.95;12.85;;;18.60;99.90;;;;;;5093770;28;20081;-71
2021/05/14 08:55:48;;;;;;;18.55;11.98;;;18.40;99.90;;;;;;5093884;28;20020;-72
2021/05/14 08:58:14;;;;;;;13.57;10.68;;;19.30;99.90;;;;;;5093559;28;20504;-72
2021/05/14 09:00:40;;;;;;;13.68;10.82;;;19.70;99.90;;;;;;5092482;28;20067;-71
2021/05/14 09:03:12;;;;;;;13.07;10.50;;;19.80;99.90;;;;;;5093711;28;20028;-71
2021/05/14 09:05:39;;;;;;;12.73;9.70;;;19.90;99.90;;;;;;5091883;28;20024;-72
2021/05/14 09:08:05;;;;;;;10.65;8.57;;;20.30;99.90;;;;;;5093625;28;20040;-72
2021/05/14 09:10:32;;;;;;;8.60;7.68;;;19.90;99.90;;;;;;5091917;28;20099;-72
2021/05/14 09:12:58;;;;;;;9.57;8.68;;;19.70;99.90;;;;;;5093111;28;20020;-72
2021/05/14 09:15:30;;;;;;;11.25;7.60;;;20.40;99.90;;;;;;5092664;28;20024;-71
2021/05/14 09:18:20;;;;;;;8.00;7.15;;;21.40;98.90;;;;;;5093542;28;20032;-72
2021/05/14 09:21:02;;;;;;;8.35;6.47;;;21.90;95.70;;;;;;5093400;28;20027;-71
2021/05/14 09:23:32;;;;;;;7.78;6.60;;;20.50;94.30;;;;;;5093633;28;20020;-71
2021/05/14 09:26:04;;;;;;;8.85;7.85;;;19.80;98.00;;;;;;5092747;28;20443;-71
2021/05/14 09:28:47;;;;;;;9.68;8.13;;;20.00;98.40;;;;;;5091727;28;20070;-71
2021/05/14 09:31:18;;;;;;;10.68;9.18;;;20.20;98.50;;;;;;5093301;28;20423;-72
2021/05/14 09:33:49;;;;;;;9.07;8.02;;;20.00;99.10;;;;;;5092029;28;20109;-70
2021/05/14 09:36:19;;;;;;;11.70;9.05;;;20.30;97.50;;;;;;5095395;28;20465;-72
2021/05/14 09:38:47;;;;;;;11.15;9.43;;;20.80;98.90;;;;;;5096138;28;20490;-72
2021/05/14 09:44:16;;;;;;;9.55;7.75;;;20.80;97.60;;;;;;5132940;27;660516;-70
2021/05/14 09:46:45;;;;;;;9.30;7.07;;;22.00;96.80;;;;;;5131840;27;20032;-70
2021/05/14 09:49:17;;;;;;;7.93;7.13;;;21.30;95.10;;;;;;5132019;27;20023;-70
2021/05/14 09:51:52;;;;;;;11.13;7.80;;;20.50;96.00;;;;;;5132033;27;20442;-70
2021/05/14 09:54:37;;;;;;;9.52;7.75;;;20.40;97.60;;;;;;5130879;28;20024;-71
2021/05/14 09:57:41;;;;;;;12.35;9.88;;;20.10;97.40;;;;;;5131992;27;20024;-71
2021/05/14 09:59:56;;;;;;;12.15;8.77;;;20.00;97.90;;;;;;5131528;28;20416;-72
2021/05/14 10:02:33;;;;;;;12.82;10.40;;;20.60;98.80;;;;;;5132124;27;20168;-72
2021/05/14 10:05:00;;;;;;;12.50;11.23;;;20.00;96.30;;;;;;5131860;27;20016;-72
2021/05/14 10:07:27;;;;;;;14.32;11.65;;;19.20;98.70;;;;;;5130000;28;20077;-72
2021/05/14 10:10:00;;;;;;;14.80;12.13;;;18.50;99.90;;;;;;5131892;27;20023;-72
2021/05/14 10:12:26;;;;;;;14.43;12.90;;;18.00;99.60;;;;;;5131786;27;20027;-72
2021/05/14 10:14:52;;;;;;;13.35;12.05;;;18.00;99.90;;;;;;5131231;27;20035;-72
2021/05/14 10:17:19;;;;;;;15.00;13.00;;;18.10;99.90;;;;;;5131331;27;20061;-72
2021/05/14 10:19:47;;;;;;;15.40;12.50;;;18.00;99.90;;;;;;5131101;27;20216;-72
2021/05/14 10:22:14;;;;;;;7.07;6.38;;;18.80;99.90;;;;;;5129615;28;20031;-72
2021/05/14 10:29:58;;;;;;;8.60;6.90;;;22.00;85.10;;;;;;5112249;27;20735;-73
2021/05/14 10:35:27;;;;;;;10.77;9.77;;;22.40;83.10;;;;;;5131170;27;20384;-72
2021/05/14 10:38:00;;;;;;;13.63;10.23;;;21.60;88.80;;;;;;5132073;27;20031;-71
2021/05/14 10:43:11;;;;;;;11.15;9.35;;;19.50;95.80;;;;;;5112117;27;20416;-73
2021/05/14 10:45:41;;;;;;;10.27;8.15;;;20.00;95.70;;;;;;5111230;28;20022;-72
2021/05/14 10:48:25;;;;;;;11.10;9.10;;;20.50;95.30;;;;;;5111474;28;20012;-72
2021/05/14 10:51:09;;;;;;;8.90;7.93;;;20.40;92.90;;;;;;5111171;28;20027;-73
2021/05/14 10:53:46;;;;;;;8.77;7.40;;;20.60;93.60;;;;;;5111364;28;20453;-72
2021/05/14 10:59:07;;;;;;;7.35;6.55;;;21.40;93.40;;;;;;5112159;27;20287;-71
2021/05/14 11:06:49;;;;;;;9.32;7.35;;;19.20;94.70;;;;;;5110734;27;20394;-73
2021/05/14 11:09:15;;;;;;;10.48;7.00;;;19.10;95.20;;;;;;5111451;28;20036;-70
2021/05/14 11:12:05;;;;;;;11.27;7.35;;;19.20;96.20;;;;;;5111166;28;20487;-73
2021/05/14 11:14:47;;;;;;;9.10;7.18;;;19.10;95.60;;;;;;5111170;28;20502;-72
2021/05/14 11:17:15;;;;;;;9.60;7.68;;;19.60;94.60;;;;;;5109949;28;20030;-72
2021/05/14 11:19:50;;;;;;;10.10;7.72;;;19.80;93.50;;;;;;5111283;28;20024;-72
2021/05/14 11:22:27;;;;;;;8.27;7.47;;;19.50;92.60;;;;;;5092883;28;20016;-72
2021/05/14 11:25:01;;;;;;;7.15;6.45;;;18.90;93.90;;;;;;5111142;28;20024;-72
2021/05/14 11:27:31;;;;;;;8.07;6.18;;;18.60;94.20;;;;;;5111599;28;20024;-72
2021/05/14 11:29:59;;;;;;;6.90;5.40;;;18.50;93.90;;;;;;5111566;28;20022;-72
2021/05/14 11:32:33;;;;;;;6.57;5.05;;;18.50;94.30;;;;;;5110936;28;20020;-72
2021/05/14 11:35:18;;;;;;;7.05;6.25;;;19.20;94.80;;;;;;5109670;28;20392;-72
2021/05/14 11:37:50;;;;;;;7.95;5.60;;;19.40;92.00;;;;;;5111016;28;20384;-72
2021/05/14 11:40:20;;;;;;;8.20;6.57;;;19.30;91.60;;;;;;5111412;28;20046;-72
2021/05/14 11:42:49;;;;;;;9.27;5.93;;;18.80;92.20;;;;;;5111406;28;20461;-72
2021/05/14 11:45:22;;;;;;;8.68;5.85;;;18.90;93.10;;;;;;5109337;28;20035;-72
2021/05/14 11:47:51;;;;;;;6.43;5.50;;;19.20;93.10;;;;;;5111724;28;20026;-70
2021/05/14 11:50:29;;;;;;;6.68;5.45;;;19.60;92.00;;;;;;5110481;28;20031;-70
2021/05/14 11:52:57;;;;;;;9.00;5.47;;;19.70;91.30;;;;;;5110783;28;20483;-70
2021/05/14 11:55:24;;;;;;;4.93;4.35;;;20.30;89.20;;;;;;5109208;28;20073;-70
2021/05/14 11:57:53;;;;;;;7.03;5.15;;;20.30;92.00;;;;;;5110819;28;20424;-70
2021/05/14 12:00:31;;;;;;;5.10;4.43;;;20.40;88.00;;;;;;5110959;28;20027;-70
2021/05/14 12:02:59;;;;;;;5.40;4.85;;;20.10;90.80;;;;;;5110928;28;20024;-70
2021/05/14 12:05:25;;;;;;;6.22;5.03;;;20.10;86.90;;;;;;5109074;28;20044;-70
2021/05/14 12:07:53;;;;;;;6.53;4.80;;;19.90;90.70;;;;;;5108928;28;20016;-70
2021/05/14 12:10:20;;;;;;;7.53;6.25;;;19.80;90.10;;;;;;5110493;28;20020;-70
2021/05/14 12:12:47;;;;;;;8.32;5.40;;;19.90;90.80;;;;;;5109296;28;20037;-70
2021/05/14 12:15:19;;;;;;;6.90;5.80;;;20.00;90.00;;;;;;5110693;28;20027;-70
2021/05/14 12:17:47;;;;;;;6.78;6.07;;;19.50;89.30;;;;;;5099019;28;20031;-70
2021/05/14 12:20:33;;;;;;;5.93;5.07;;;19.30;90.40;;;;;;5096421;28;20479;-70
2021/05/14 12:23:02;;;;;;;6.95;4.85;;;19.30;90.10;;;;;;5096321;28;20036;-70
2021/05/14 12:25:30;;;;;;;6.93;6.22;;;19.70;91.00;;;;;;5097091;28;20024;-70
2021/05/14 12:27:56;;;;;;;9.52;6.97;;;19.90;87.60;;;;;;5095700;28;20019;-70
2021/05/14 12:30:36;;;;;;;8.20;6.03;;;19.50;83.30;;;;;;5096789;28;20065;-70
2021/05/14 12:33:02;;;;;;;7.30;5.32;;;19.60;90.30;;;;;;5096754;28;20026;-70
2021/05/14 12:35:28;;;;;;;8.38;6.18;;;20.00;90.40;;;;;;5096724;28;20048;-70
2021/05/14 12:37:59;;;;;;;7.22;6.53;;;19.90;87.90;;;;;;5095228;28;20402;-70
2021/05/14 12:40:30;;;;;;;7.20;5.97;;;19.90;88.00;;;;;;5096083;28;20058;-70
2021/05/14 12:43:09;;;;;;;7.28;6.53;;;19.60;89.20;;;;;;5096361;28;20016;-70
2021/05/14 12:45:36;;;;;;;7.13;5.75;;;19.80;88.70;;;;;;5095733;28;20028;-70
2021/05/14 12:48:03;;;;;;;8.15;6.95;;;19.60;88.70;;;;;;5094809;28;20052;-70
2021/05/14 12:50:29;;;;;;;7.63;5.60;;;19.40;86.10;;;;;;5096095;28;20043;-70
2021/05/14 12:52:55;;;;;;;5.43;4.18;;;20.00;90.50;;;;;;5094557;28;20450;-70
2021/05/14 12:55:21;;;;;;;4.85;4.38;;;20.30;90.90;;;;;;5096297;28;20447;-70
2021/05/14 12:57:57;;;;;;;4.38;3.80;;;20.20;84.80;;;;;;5095098;28;20470;-70
2021/05/14 13:00:36;;;;;;;3.75;3.45;;;20.60;87.70;;;;;;5094804;28;20035;-70